sensor_id;sensor_type;location;lat;lon;timestamp;pressure;altitude;pressure_sealevel;temperature;humidity
28267;BME280;15525;45.568;5.448;2022-12-20T00:02:23;98795.34;;;9.52;62.39
28267;BME280;15525;45.568;5.448;2022-12-20T00:08:07;98800.06;;;9.45;63.32
28267;BME280;15525;45.568;5.448;2022-12-20T00:10:38;98803.38;;;9.52;62.32
28267;BME280;15525;45.568;5.448;2022-12-20T00:13:04;98804.91;;;9.48;62.73
28267;BME280;15525;45.568;5.448;2022-12-20T00:15:30;98776.41;;;9.37;62.84
28267;BME280;15525;45.568;5.448;2022-12-20T00:17:56;98803.59;;;9.50;62.72
28267;BME280;15525;45.568;5.448;2022-12-20T00:20:22;98792.44;;;9.20;63.40
28267;BME280;15525;45.568;5.448;2022-12-20T00:22:47;98767.25;;;9.00;63.69
28267;BME280;15525;45.568;5.448;2022-12-20T00:25:13;98793.56;;;9.41;62.82
28267;BME280;15525;45.568;5.448;2022-12-20T00:27:38;98775.28;;;9.16;63.56
28267;BME280;15525;45.568;5.448;2022-12-20T00:30:04;98776.25;;;9.27;63.27
28267;BME280;15525;45.568;5.448;2022-12-20T00:32:30;98704.25;;;8.71;63.32
28267;BME280;15525;45.568;5.448;2022-12-20T00:34:56;98774.94;;;8.96;64.32
28267;BME280;15525;45.568;5.448;2022-12-20T00:37:22;98788.47;;;9.23;63.82
28267;BME280;15525;45.568;5.448;2022-12-20T00:39:48;98801.81;;;9.23;63.66
28267;BME280;15525;45.568;5.448;2022-12-20T00:42:13;98786.34;;;9.25;63.81
28267;BME280;15525;45.568;5.448;2022-12-20T00:44:39;98771.63;;;9.22;63.05
28267;BME280;15525;45.568;5.448;2022-12-20T00:47:05;98791.00;;;9.29;63.31
28267;BME280;15525;45.568;5.448;2022-12-20T00:49:30;98773.81;;;9.25;62.29
28267;BME280;15525;45.568;5.448;2022-12-20T00:51:56;98805.22;;;9.35;62.27
28267;BME280;15525;45.568;5.448;2022-12-20T00:54:21;98777.19;;;9.04;63.09
28267;BME280;15525;45.568;5.448;2022-12-20T00:56:47;98805.41;;;9.28;62.82
28267;BME280;15525;45.568;5.448;2022-12-20T00:59:12;98755.66;;;8.94;63.03
28267;BME280;15525;45.568;5.448;2022-12-20T01:01:39;98800.34;;;8.99;63.97
28267;BME280;15525;45.568;5.448;2022-12-20T01:04:04;98785.44;;;9.03;63.43
28267;BME280;15525;45.568;5.448;2022-12-20T01:06:30;98789.75;;;9.04;62.83
28267;BME280;15525;45.568;5.448;2022-12-20T01:08:56;98785.75;;;8.90;63.51
28267;BME280;15525;45.568;5.448;2022-12-20T01:11:27;98708.28;;;8.29;64.07
28267;BME280;15525;45.568;5.448;2022-12-20T01:14:02;98808.03;;;9.12;63.63
28267;BME280;15525;45.568;5.448;2022-12-20T01:16:36;98815.56;;;9.15;63.48
28267;BME280;15525;45.568;5.448;2022-12-20T01:19:03;98788.69;;;9.05;63.17
28267;BME280;15525;45.568;5.448;2022-12-20T01:21:28;98771.81;;;8.88;63.61
28267;BME280;15525;45.568;5.448;2022-12-20T01:23:55;98759.06;;;8.62;64.77
28267;BME280;15525;45.568;5.448;2022-12-20T01:26:23;98808.38;;;9.15;63.56
28267;BME280;15525;45.568;5.448;2022-12-20T01:28:52;98786.25;;;9.03;64.05
28267;BME280;15525;45.568;5.448;2022-12-20T01:31:18;98777.84;;;8.95;63.65
28267;BME280;15525;45.568;5.448;2022-12-20T01:33:46;98810.00;;;9.16;63.59
28267;BME280;15525;45.568;5.448;2022-12-20T01:36:14;98808.03;;;9.12;63.39
28267;BME280;15525;45.568;5.448;2022-12-20T01:38:40;98782.78;;;8.75;64.87
28267;BME280;15525;45.568;5.448;2022-12-20T01:41:05;98796.94;;;9.03;64.37
28267;BME280;15525;45.568;5.448;2022-12-20T01:43:53;98787.47;;;8.96;65.43
28267;BME280;15525;45.568;5.448;2022-12-20T01:46:21;98771.59;;;8.61;65.79
28267;BME280;15525;45.568;5.448;2022-12-20T01:48:54;98776.59;;;8.86;65.50
28267;BME280;15525;45.568;5.448;2022-12-20T01:51:21;98777.72;;;9.18;64.83
28267;BME280;15525;45.568;5.448;2022-12-20T01:53:52;98750.16;;;8.84;65.43
28267;BME280;15525;45.568;5.448;2022-12-20T01:56:20;98759.97;;;9.12;64.50
28267;BME280;15525;45.568;5.448;2022-12-20T01:58:47;98753.97;;;9.05;64.42
28267;BME280;15525;45.568;5.448;2022-12-20T02:01:14;98712.47;;;8.81;64.93
28267;BME280;15525;45.568;5.448;2022-12-20T02:03:41;98766.28;;;9.39;64.33
28267;BME280;15525;45.568;5.448;2022-12-20T02:06:18;98739.50;;;9.17;64.45
28267;BME280;15525;45.568;5.448;2022-12-20T02:08:46;98756.97;;;9.25;64.71
28267;BME280;15525;45.568;5.448;2022-12-20T02:16:25;98723.22;;;9.19;66.06
28267;BME280;15525;45.568;5.448;2022-12-20T02:19:24;98725.81;;;9.30;65.83
28267;BME280;15525;45.568;5.448;2022-12-20T02:21:56;98725.25;;;9.28;65.85
28267;BME280;15525;45.568;5.448;2022-12-20T02:32:35;98713.19;;;10.02;65.03
28267;BME280;15525;45.568;5.448;2022-12-20T02:35:04;98700.72;;;9.69;64.95
28267;BME280;15525;45.568;5.448;2022-12-20T02:37:31;98705.75;;;10.04;64.03
28267;BME280;15525;45.568;5.448;2022-12-20T02:39:57;98684.56;;;9.81;64.27
28267;BME280;15525;45.568;5.448;2022-12-20T02:42:25;98705.59;;;9.94;64.08
28267;BME280;15525;45.568;5.448;2022-12-20T02:44:56;98696.59;;;10.00;63.53
28267;BME280;15525;45.568;5.448;2022-12-20T02:47:48;98716.47;;;10.25;65.77
28267;BME280;15525;45.568;5.448;2022-12-20T02:50:22;98694.28;;;10.30;64.44
28267;BME280;15525;45.568;5.448;2022-12-20T02:52:48;98707.38;;;10.53;64.53
28267;BME280;15525;45.568;5.448;2022-12-20T02:55:15;98669.22;;;10.36;64.40
28267;BME280;15525;45.568;5.448;2022-12-20T03:00:17;98706.19;;;10.97;63.52
28267;BME280;15525;45.568;5.448;2022-12-20T03:02:44;98711.72;;;10.85;62.53
28267;BME280;15525;45.568;5.448;2022-12-20T03:05:30;98717.88;;;10.59;63.56
28267;BME280;15525;45.568;5.448;2022-12-20T03:07:57;98701.25;;;10.52;63.80
28267;BME280;15525;45.568;5.448;2022-12-20T03:10:23;98726.50;;;10.61;64.79
28267;BME280;15525;45.568;5.448;2022-12-20T03:12:49;98702.84;;;11.11;62.85
28267;BME280;15525;45.568;5.448;2022-12-20T03:15:14;98677.03;;;11.00;61.99
28267;BME280;15525;45.568;5.448;2022-12-20T03:17:39;98681.78;;;10.88;62.63
28267;BME280;15525;45.568;5.448;2022-12-20T03:20:07;98711.97;;;10.84;62.91
28267;BME280;15525;45.568;5.448;2022-12-20T03:22:33;98713.63;;;10.90;62.43
28267;BME280;15525;45.568;5.448;2022-12-20T03:24:59;98707.03;;;10.71;63.34
28267;BME280;15525;45.568;5.448;2022-12-20T03:27:25;98700.41;;;10.52;63.95
28267;BME280;15525;45.568;5.448;2022-12-20T03:29:52;98653.94;;;10.63;63.23
28267;BME280;15525;45.568;5.448;2022-12-20T03:32:18;98698.16;;;10.97;62.54
28267;BME280;15525;45.568;5.448;2022-12-20T03:34:44;98699.63;;;10.78;62.69
28267;BME280;15525;45.568;5.448;2022-12-20T03:37:09;98695.03;;;10.78;61.80
28267;BME280;15525;45.568;5.448;2022-12-20T03:39:34;98663.16;;;10.45;61.88
28267;BME280;15525;45.568;5.448;2022-12-20T03:42:00;98665.00;;;10.45;61.96
28267;BME280;15525;45.568;5.448;2022-12-20T03:44:25;98635.78;;;10.12;62.88
28267;BME280;15525;45.568;5.448;2022-12-20T03:46:51;98573.28;;;9.75;63.21
28267;BME280;15525;45.568;5.448;2022-12-20T03:49:16;98678.84;;;10.37;62.91
28267;BME280;15525;45.568;5.448;2022-12-20T03:51:41;98671.50;;;10.54;62.82
28267;BME280;15525;45.568;5.448;2022-12-20T03:54:07;98669.09;;;10.26;62.71
28267;BME280;15525;45.568;5.448;2022-12-20T03:56:32;98644.97;;;9.78;64.20
28267;BME280;15525;45.568;5.448;2022-12-20T03:58:58;98667.72;;;10.02;63.00
28267;BME280;15525;45.568;5.448;2022-12-20T04:01:26;98693.16;;;10.26;62.98
28267;BME280;15525;45.568;5.448;2022-12-20T04:03:52;98679.34;;;10.07;62.58
28267;BME280;15525;45.568;5.448;2022-12-20T04:06:18;98681.41;;;9.84;64.27
28267;BME280;15525;45.568;5.448;2022-12-20T04:08:44;98656.34;;;9.68;63.81
28267;BME280;15525;45.568;5.448;2022-12-20T04:11:09;98702.13;;;9.72;64.66
28267;BME280;15525;45.568;5.448;2022-12-20T04:13:46;98667.91;;;9.74;63.27
28267;BME280;15525;45.568;5.448;2022-12-20T04:16:13;98693.41;;;9.81;63.22
28267;BME280;15525;45.568;5.448;2022-12-20T04:18:40;98670.47;;;9.64;63.31
28267;BME280;15525;45.568;5.448;2022-12-20T04:21:06;98701.66;;;9.80;63.81
28267;BME280;15525;45.568;5.448;2022-12-20T04:23:33;98688.75;;;9.72;63.78
28267;BME280;15525;45.568;5.448;2022-12-20T04:25:59;98691.63;;;9.87;63.83
28267;BME280;15525;45.568;5.448;2022-12-20T04:28:25;98684.13;;;9.89;63.17
28267;BME280;15525;45.568;5.448;2022-12-20T04:30:50;98706.22;;;10.01;63.75
28267;BME280;15525;45.568;5.448;2022-12-20T04:33:16;98677.47;;;9.91;63.41
28267;BME280;15525;45.568;5.448;2022-12-20T04:35:42;98685.31;;;9.98;63.35
28267;BME280;15525;45.568;5.448;2022-12-20T04:38:07;98682.53;;;9.88;63.63
28267;BME280;15525;45.568;5.448;2022-12-20T04:40:32;98701.72;;;9.85;64.02
28267;BME280;15525;45.568;5.448;2022-12-20T04:42:58;98699.91;;;10.07;64.06
28267;BME280;15525;45.568;5.448;2022-12-20T04:45:23;98655.50;;;9.84;64.30
28267;BME280;15525;45.568;5.448;2022-12-20T04:47:49;98684.44;;;10.09;64.15
28267;BME280;15525;45.568;5.448;2022-12-20T04:50:14;98660.78;;;10.01;63.25
28267;BME280;15525;45.568;5.448;2022-12-20T04:52:40;98646.09;;;9.82;64.35
28267;BME280;15525;45.568;5.448;2022-12-20T04:55:23;98667.84;;;9.90;64.66
28267;BME280;15525;45.568;5.448;2022-12-20T04:57:49;98686.09;;;9.93;64.14
28267;BME280;15525;45.568;5.448;2022-12-20T05:00:14;98660.78;;;10.01;63.79
28267;BME280;15525;45.568;5.448;2022-12-20T05:02:41;98688.28;;;10.18;64.08
28267;BME280;15525;45.568;5.448;2022-12-20T05:05:06;98664.22;;;10.01;64.67
28267;BME280;15525;45.568;5.448;2022-12-20T05:07:32;98687.75;;;10.21;64.71
28267;BME280;15525;45.568;5.448;2022-12-20T05:09:57;98678.28;;;10.35;63.86
28267;BME280;15525;45.568;5.448;2022-12-20T05:12:23;98665.78;;;10.14;64.04
28267;BME280;15525;45.568;5.448;2022-12-20T05:14:48;98704.94;;;10.51;64.41
28267;BME280;15525;45.568;5.448;2022-12-20T05:17:14;98698.69;;;10.67;63.87
28267;BME280;15525;45.568;5.448;2022-12-20T05:19:39;98642.38;;;10.31;63.78
28267;BME280;15525;45.568;5.448;2022-12-20T05:22:05;98681.19;;;10.55;64.59
28267;BME280;15525;45.568;5.448;2022-12-20T05:24:48;98681.72;;;10.57;63.54
28267;BME280;15525;45.568;5.448;2022-12-20T05:27:32;98675.34;;;10.63;64.04
28267;BME280;15525;45.568;5.448;2022-12-20T05:29:58;98598.41;;;10.22;63.48
28267;BME280;15525;45.568;5.448;2022-12-20T05:32:23;98669.47;;;10.61;63.56
28267;BME280;15525;45.568;5.448;2022-12-20T05:34:49;98657.50;;;10.42;64.09
28267;BME280;15525;45.568;5.448;2022-12-20T05:37:14;98639.78;;;10.36;64.51
28267;BME280;15525;45.568;5.448;2022-12-20T05:39:39;98636.38;;;10.45;63.84
28267;BME280;15525;45.568;5.448;2022-12-20T05:42:05;98648.66;;;10.41;63.89
28267;BME280;15525;45.568;5.448;2022-12-20T05:44:30;98644.66;;;10.44;64.11
28267;BME280;15525;45.568;5.448;2022-12-20T05:46:56;98591.47;;;9.99;64.85
28267;BME280;15525;45.568;5.448;2022-12-20T05:49:21;98635.78;;;10.38;65.13
28267;BME280;15525;45.568;5.448;2022-12-20T05:51:46;98618.00;;;10.54;64.72
28267;BME280;15525;45.568;5.448;2022-12-20T05:54:12;98638.84;;;10.83;63.92
28267;BME280;15525;45.568;5.448;2022-12-20T05:56:37;98641.66;;;10.98;64.15
28267;BME280;15525;45.568;5.448;2022-12-20T05:59:02;98657.03;;;10.76;64.94
28267;BME280;15525;45.568;5.448;2022-12-20T06:01:28;98627.44;;;10.93;63.85
28267;BME280;15525;45.568;5.448;2022-12-20T06:03:53;98638.91;;;10.88;64.87
28267;BME280;15525;45.568;5.448;2022-12-20T06:06:19;98620.97;;;10.89;63.97
28267;BME280;15525;45.568;5.448;2022-12-20T06:08:44;98633.41;;;11.05;63.56
28267;BME280;15525;45.568;5.448;2022-12-20T06:11:10;98592.25;;;10.79;63.39
28267;BME280;15525;45.568;5.448;2022-12-20T06:13:35;98610.16;;;10.74;64.13
28267;BME280;15525;45.568;5.448;2022-12-20T06:16:01;98610.81;;;10.91;63.89
28267;BME280;15525;45.568;5.448;2022-12-20T06:18:26;98598.66;;;10.78;63.83
28267;BME280;15525;45.568;5.448;2022-12-20T06:20:52;98571.19;;;10.56;64.07
28267;BME280;15525;45.568;5.448;2022-12-20T06:23:18;98543.78;;;10.44;63.50
28267;BME280;15525;45.568;5.448;2022-12-20T06:25:45;98601.56;;;10.77;64.21
28267;BME280;15525;45.568;5.448;2022-12-20T06:28:10;98588.13;;;10.67;64.52
28267;BME280;15525;45.568;5.448;2022-12-20T06:30:36;98611.22;;;10.73;64.33
28267;BME280;15525;45.568;5.448;2022-12-20T06:33:01;98626.22;;;10.74;64.29
28267;BME280;15525;45.568;5.448;2022-12-20T06:35:27;98633.88;;;10.97;64.09
28267;BME280;15525;45.568;5.448;2022-12-20T06:37:53;98638.63;;;10.90;64.01
28267;BME280;15525;45.568;5.448;2022-12-20T06:40:19;98611.22;;;10.73;64.23
28267;BME280;15525;45.568;5.448;2022-12-20T06:42:44;98605.03;;;10.72;64.48
28267;BME280;15525;45.568;5.448;2022-12-20T06:45:10;98617.50;;;10.88;63.91
28267;BME280;15525;45.568;5.448;2022-12-20T06:47:35;98630.59;;;10.90;64.21
28267;BME280;15525;45.568;5.448;2022-12-20T06:50:03;98651.59;;;11.03;64.31
28267;BME280;15525;45.568;5.448;2022-12-20T06:52:28;98652.66;;;11.02;64.53
28267;BME280;15525;45.568;5.448;2022-12-20T06:54:54;98668.63;;;10.87;65.35
28267;BME280;15525;45.568;5.448;2022-12-20T06:57:19;98649.03;;;11.18;63.90
28267;BME280;15525;45.568;5.448;2022-12-20T06:59:45;98651.69;;;11.18;64.01
28267;BME280;15525;45.568;5.448;2022-12-20T07:02:11;98636.72;;;11.22;63.47
28267;BME280;15525;45.568;5.448;2022-12-20T07:04:36;98653.38;;;11.24;63.84
28267;BME280;15525;45.568;5.448;2022-12-20T07:07:03;98668.88;;;11.22;63.57
28267;BME280;15525;45.568;5.448;2022-12-20T07:09:28;98609.53;;;10.98;63.49
28267;BME280;15525;45.568;5.448;2022-12-20T07:11:54;98656.03;;;11.24;63.12
28267;BME280;15525;45.568;5.448;2022-12-20T07:14:20;98629.66;;;11.06;63.90
28267;BME280;15525;45.568;5.448;2022-12-20T07:16:45;98660.13;;;11.31;63.24
28267;BME280;15525;45.568;5.448;2022-12-20T07:19:12;98657.16;;;11.28;63.82
28267;BME280;15525;45.568;5.448;2022-12-20T07:21:37;98629.47;;;11.17;63.55
28267;BME280;15525;45.568;5.448;2022-12-20T07:24:03;98582.25;;;10.70;64.27
28267;BME280;15525;45.568;5.448;2022-12-20T07:26:29;98644.00;;;11.26;63.38
28267;BME280;15525;45.568;5.448;2022-12-20T07:28:54;98620.88;;;10.79;64.96
28267;BME280;15525;45.568;5.448;2022-12-20T07:31:20;98665.56;;;11.05;65.41
28267;BME280;15525;45.568;5.448;2022-12-20T07:33:45;98649.69;;;11.35;64.13
28267;BME280;15525;45.568;5.448;2022-12-20T07:36:12;98634.88;;;11.22;64.17
28267;BME280;15525;45.568;5.448;2022-12-20T07:38:38;98607.00;;;11.23;63.88
28267;BME280;15525;45.568;5.448;2022-12-20T07:41:07;98612.50;;;11.43;63.93
28267;BME280;15525;45.568;5.448;2022-12-20T07:43:33;98621.56;;;11.42;63.98
28267;BME280;15525;45.568;5.448;2022-12-20T07:45:58;98605.38;;;11.17;64.15
28267;BME280;15525;45.568;5.448;2022-12-20T07:48:24;98607.41;;;11.47;63.81
28267;BME280;15525;45.568;5.448;2022-12-20T07:50:58;98610.94;;;11.57;63.30
28267;BME280;15525;45.568;5.448;2022-12-20T07:53:26;98615.47;;;11.52;63.80
28267;BME280;15525;45.568;5.448;2022-12-20T07:55:53;98612.66;;;11.73;63.03
28267;BME280;15525;45.568;5.448;2022-12-20T07:58:20;98577.34;;;11.40;63.91
28267;BME280;15525;45.568;5.448;2022-12-20T08:00:46;98597.78;;;11.51;64.66
28267;BME280;15525;45.568;5.448;2022-12-20T08:03:19;98599.53;;;11.82;63.26
28267;BME280;15525;45.568;5.448;2022-12-20T08:05:49;98594.16;;;11.77;63.68
28267;BME280;15525;45.568;5.448;2022-12-20T08:08:16;98587.53;;;12.05;63.20
28267;BME280;15525;45.568;5.448;2022-12-20T08:10:42;98593.41;;;11.92;64.01
28267;BME280;15525;45.568;5.448;2022-12-20T08:13:08;98610.88;;;12.09;63.14
28267;BME280;15525;45.568;5.448;2022-12-20T08:15:34;98617.06;;;12.20;62.90
28267;BME280;15525;45.568;5.448;2022-12-20T08:18:00;98627.88;;;12.40;62.56
28267;BME280;15525;45.568;5.448;2022-12-20T08:20:26;98640.13;;;12.11;63.61
28267;BME280;15525;45.568;5.448;2022-12-20T08:22:51;98635.09;;;12.24;63.17
28267;BME280;15525;45.568;5.448;2022-12-20T08:25:17;98622.53;;;12.50;62.27
28267;BME280;15525;45.568;5.448;2022-12-20T08:27:42;98624.38;;;12.44;62.32
28267;BME280;15525;45.568;5.448;2022-12-20T08:30:09;98596.72;;;12.94;60.63
28267;BME280;15525;45.568;5.448;2022-12-20T08:32:36;98571.75;;;12.78;60.70
28267;BME280;15525;45.568;5.448;2022-12-20T08:35:02;98619.84;;;13.20;60.35
28267;BME280;15525;45.568;5.448;2022-12-20T08:37:27;98565.84;;;12.81;60.96
28267;BME280;15525;45.568;5.448;2022-12-20T08:39:53;98546.97;;;13.26;59.75
28267;BME280;15525;45.568;5.448;2022-12-20T08:42:18;98580.88;;;13.17;59.33
28267;BME280;15525;45.568;5.448;2022-12-20T08:44:44;98562.44;;;13.59;57.51
28267;BME280;15525;45.568;5.448;2022-12-20T08:47:09;98535.69;;;14.31;54.43
28267;BME280;15525;45.568;5.448;2022-12-20T08:49:35;98548.19;;;14.79;54.61
28267;BME280;15525;45.568;5.448;2022-12-20T08:52:01;98512.31;;;15.12;52.93
28267;BME280;15525;45.568;5.448;2022-12-20T08:54:26;98533.53;;;15.84;51.82
28267;BME280;15525;45.568;5.448;2022-12-20T08:56:52;98536.44;;;15.51;52.42
28267;BME280;15525;45.568;5.448;2022-12-20T08:59:17;98552.22;;;15.10;52.82
28267;BME280;15525;45.568;5.448;2022-12-20T09:01:43;98535.78;;;15.59;52.23
28267;BME280;15525;45.568;5.448;2022-12-20T09:04:09;98538.50;;;15.35;52.79
28267;BME280;15525;45.568;5.448;2022-12-20T09:06:35;98558.44;;;15.39;53.29
28267;BME280;15525;45.568;5.448;2022-12-20T09:09:01;98532.13;;;14.98;54.14
28267;BME280;15525;45.568;5.448;2022-12-20T09:11:27;98558.94;;;15.13;54.11
28267;BME280;15525;45.568;5.448;2022-12-20T09:13:55;98562.53;;;15.55;52.83
28267;BME280;15525;45.568;5.448;2022-12-20T09:16:24;98533.22;;;15.20;52.80
28267;BME280;15525;45.568;5.448;2022-12-20T09:18:51;98538.00;;;15.28;52.67
28267;BME280;15525;45.568;5.448;2022-12-20T09:21:18;98585.66;;;15.85;52.25
28267;BME280;15525;45.568;5.448;2022-12-20T09:23:44;98586.56;;;15.75;53.11
28267;BME280;15525;45.568;5.448;2022-12-20T09:26:11;98587.06;;;15.59;53.03
28267;BME280;15525;45.568;5.448;2022-12-20T09:28:37;98583.81;;;15.33;52.85
28267;BME280;15525;45.568;5.448;2022-12-20T09:31:05;98545.34;;;14.99;52.95
28267;BME280;15525;45.568;5.448;2022-12-20T09:33:32;98580.63;;;15.55;53.03
28267;BME280;15525;45.568;5.448;2022-12-20T09:35:59;98577.88;;;15.60;53.48
28267;BME280;15525;45.568;5.448;2022-12-20T09:38:26;98566.69;;;15.48;53.67
28267;BME280;15525;45.568;5.448;2022-12-20T09:40:54;98561.69;;;15.36;53.82
28267;BME280;15525;45.568;5.448;2022-12-20T09:43:21;98577.06;;;15.36;53.36
28267;BME280;15525;45.568;5.448;2022-12-20T09:45:52;98585.97;;;15.60;52.24
28267;BME280;15525;45.568;5.448;2022-12-20T09:48:21;98583.66;;;15.72;53.52
28267;BME280;15525;45.568;5.448;2022-12-20T09:53:50;98555.50;;;15.78;51.39
28267;BME280;15525;45.568;5.448;2022-12-20T09:56:26;98549.41;;;16.09;51.84
28267;BME280;15525;45.568;5.448;2022-12-20T09:58:59;98559.31;;;16.14;52.06
28267;BME280;15525;45.568;5.448;2022-12-20T10:01:29;98559.25;;;16.19;51.59
28267;BME280;15525;45.568;5.448;2022-12-20T10:03:57;98538.31;;;16.11;50.76
28267;BME280;15525;45.568;5.448;2022-12-20T10:06:35;98527.66;;;15.82;51.06
28267;BME280;15525;45.568;5.448;2022-12-20T10:09:12;98546.69;;;16.28;50.13
28267;BME280;15525;45.568;5.448;2022-12-20T10:16:55;98511.88;;;16.77;48.39
28267;BME280;15525;45.568;5.448;2022-12-20T10:22:31;98527.00;;;16.78;47.30
28267;BME280;15525;45.568;5.448;2022-12-20T10:25:06;98532.94;;;16.93;48.46
28267;BME280;15525;45.568;5.448;2022-12-20T10:27:40;98480.06;;;17.14;46.67
28267;BME280;15525;45.568;5.448;2022-12-20T10:30:21;98489.00;;;17.28;47.30
28267;BME280;15525;45.568;5.448;2022-12-20T10:32:49;98500.31;;;17.30;47.41
28267;BME280;15525;45.568;5.448;2022-12-20T10:35:37;98504.03;;;17.21;48.09
28267;BME280;15525;45.568;5.448;2022-12-20T10:38:09;98529.09;;;16.67;48.81
28267;BME280;15525;45.568;5.448;2022-12-20T10:41:01;98495.94;;;16.75;47.93
28267;BME280;15525;45.568;5.448;2022-12-20T10:43:38;98511.72;;;17.14;47.11
28267;BME280;15525;45.568;5.448;2022-12-20T10:46:08;98507.94;;;17.28;46.58
28267;BME280;15525;45.568;5.448;2022-12-20T10:48:37;98505.53;;;17.13;46.45
28267;BME280;15525;45.568;5.448;2022-12-20T10:51:12;98521.47;;;17.69;46.10
28267;BME280;15525;45.568;5.448;2022-12-20T10:53:59;98500.72;;;17.37;47.86
28267;BME280;15525;45.568;5.448;2022-12-20T10:58:56;98501.41;;;17.29;47.50
28267;BME280;15525;45.568;5.448;2022-12-20T11:01:25;98494.91;;;17.17;47.28
28267;BME280;15525;45.568;5.448;2022-12-20T11:03:56;98499.41;;;17.35;46.49
28267;BME280;15525;45.568;5.448;2022-12-20T11:06:25;98422.22;;;17.37;46.56
28267;BME280;15525;45.568;5.448;2022-12-20T11:08:51;98458.81;;;17.48;45.51
28267;BME280;15525;45.568;5.448;2022-12-20T11:11:22;98490.31;;;17.58;45.35
28267;BME280;15525;45.568;5.448;2022-12-20T11:13:49;98454.34;;;17.79;44.98
28267;BME280;15525;45.568;5.448;2022-12-20T11:16:43;98480.34;;;18.16;45.17
28267;BME280;15525;45.568;5.448;2022-12-20T11:24:34;98496.84;;;17.92;45.64
28267;BME280;15525;45.568;5.448;2022-12-20T11:27:26;98490.78;;;17.33;46.45
28267;BME280;15525;45.568;5.448;2022-12-20T11:30:08;98470.03;;;17.28;46.16
28267;BME280;15525;45.568;5.448;2022-12-20T11:40:16;98454.19;;;17.35;46.20
28267;BME280;15525;45.568;5.448;2022-12-20T11:45:42;98446.69;;;17.81;45.12
28267;BME280;15525;45.568;5.448;2022-12-20T11:51:41;98435.38;;;17.79;45.11
28267;BME280;15525;45.568;5.448;2022-12-20T11:57:28;98425.03;;;17.81;45.17
28267;BME280;15525;45.568;5.448;2022-12-20T11:59:59;98423.31;;;17.63;45.26
28267;BME280;15525;45.568;5.448;2022-12-20T12:05:43;98390.28;;;17.97;44.33
28267;BME280;15525;45.568;5.448;2022-12-20T12:08:18;98411.59;;;18.12;44.21
28267;BME280;15525;45.568;5.448;2022-12-20T12:11:02;98430.25;;;17.91;44.66
28267;BME280;15525;45.568;5.448;2022-12-20T12:13:34;98400.88;;;17.49;45.35
28267;BME280;15525;45.568;5.448;2022-12-20T12:16:49;98424.41;;;17.62;45.26
28267;BME280;15525;45.568;5.448;2022-12-20T12:18:48;98405.25;;;17.59;44.37
28267;BME280;15525;45.568;5.448;2022-12-20T12:21:32;98388.38;;;17.97;44.80
28267;BME280;15525;45.568;5.448;2022-12-20T12:24:25;98420.28;;;17.65;44.97
28267;BME280;15525;45.568;5.448;2022-12-20T12:26:54;98392.59;;;17.68;44.52
28267;BME280;15525;45.568;5.448;2022-12-20T12:29:20;98394.84;;;17.66;44.72
28267;BME280;15525;45.568;5.448;2022-12-20T12:32:03;98394.09;;;17.96;44.56
28267;BME280;15525;45.568;5.448;2022-12-20T12:34:50;98387.84;;;18.17;44.63
28267;BME280;15525;45.568;5.448;2022-12-20T12:37:29;98391.09;;;17.97;45.07
28267;BME280;15525;45.568;5.448;2022-12-20T12:45:56;98375.66;;;17.62;44.48
28267;BME280;15525;45.568;5.448;2022-12-20T12:51:04;98368.41;;;18.15;44.33
28267;BME280;15525;45.568;5.448;2022-12-20T13:02:21;98361.59;;;17.74;45.09
28267;BME280;15525;45.568;5.448;2022-12-20T13:15:00;98357.25;;;17.86;44.53
28267;BME280;15525;45.568;5.448;2022-12-20T13:19:54;98343.13;;;17.98;43.35
28267;BME280;15525;45.568;5.448;2022-12-20T13:22:22;98344.41;;;17.56;44.07
28267;BME280;15525;45.568;5.448;2022-12-20T13:24:55;98341.28;;;18.07;44.42
28267;BME280;15525;45.568;5.448;2022-12-20T13:27:38;98327.19;;;17.74;43.80
28267;BME280;15525;45.568;5.448;2022-12-20T13:40:47;98343.53;;;18.13;43.77
28267;BME280;15525;45.568;5.448;2022-12-20T13:45:50;98308.94;;;18.10;44.24
28267;BME280;15525;45.568;5.448;2022-12-20T13:48:25;98324.47;;;17.74;44.27
28267;BME280;15525;45.568;5.448;2022-12-20T13:50:56;98307.28;;;17.35;45.35
28267;BME280;15525;45.568;5.448;2022-12-20T13:53:24;98329.94;;;17.83;44.54
28267;BME280;15525;45.568;5.448;2022-12-20T13:57:00;98333.16;;;18.07;44.59
28267;BME280;15525;45.568;5.448;2022-12-20T13:59:26;98323.44;;;17.62;44.88
28267;BME280;15525;45.568;5.448;2022-12-20T14:01:55;98292.50;;;18.07;44.44
28267;BME280;15525;45.568;5.448;2022-12-20T14:04:21;98296.28;;;17.53;45.10
28267;BME280;15525;45.568;5.448;2022-12-20T14:06:59;98287.53;;;18.00;44.52
28267;BME280;15525;45.568;5.448;2022-12-20T14:09:27;98316.69;;;18.03;44.73
28267;BME280;15525;45.568;5.448;2022-12-20T14:11:54;98307.34;;;18.09;44.39
28267;BME280;15525;45.568;5.448;2022-12-20T14:14:26;98283.97;;;17.91;45.06
28267;BME280;15525;45.568;5.448;2022-12-20T14:16:51;98320.66;;;17.97;45.73
28267;BME280;15525;45.568;5.448;2022-12-20T14:19:17;98319.31;;;17.64;46.38
28267;BME280;15525;45.568;5.448;2022-12-20T14:21:44;98330.06;;;17.56;46.53
28267;BME280;15525;45.568;5.448;2022-12-20T14:24:16;98332.88;;;17.51;46.18
28267;BME280;15525;45.568;5.448;2022-12-20T14:26:45;98316.09;;;17.62;45.05
28267;BME280;15525;45.568;5.448;2022-12-20T14:29:18;98324.31;;;17.93;44.93
28267;BME280;15525;45.568;5.448;2022-12-20T14:31:46;98305.25;;;18.06;45.43
28267;BME280;15525;45.568;5.448;2022-12-20T14:34:19;98323.19;;;17.94;46.27
28267;BME280;15525;45.568;5.448;2022-12-20T14:36:48;98321.22;;;17.64;46.17
28267;BME280;15525;45.568;5.448;2022-12-20T14:39:31;98313.59;;;17.66;45.81
28267;BME280;15525;45.568;5.448;2022-12-20T14:44:32;98303.81;;;17.78;45.40
28267;BME280;15525;45.568;5.448;2022-12-20T14:47:01;98300.00;;;18.10;44.80
28267;BME280;15525;45.568;5.448;2022-12-20T14:49:32;98297.72;;;18.03;45.33
28267;BME280;15525;45.568;5.448;2022-12-20T14:55:10;98271.13;;;16.82;46.68
28267;BME280;15525;45.568;5.448;2022-12-20T15:08:13;98302.69;;;17.79;46.35
28267;BME280;15525;45.568;5.448;2022-12-20T15:10:46;98289.97;;;17.58;47.19